createdAt,value
2022-11-29T00:01:43.597Z,7.50
2022-11-29T00:04:12.779Z,7.50
2022-11-29T00:06:40.774Z,7.50
2022-11-29T00:09:11.474Z,7.50
2022-11-29T00:11:57.706Z,7.50
2022-11-29T00:14:27.096Z,7.50
2022-11-29T00:16:56.689Z,7.50
2022-11-29T00:19:26.028Z,7.50
2022-11-29T00:21:53.755Z,7.50
2022-11-29T00:24:21.755Z,7.50
2022-11-29T00:26:49.998Z,7.50
2022-11-29T00:29:17.772Z,7.50
2022-11-29T00:31:45.829Z,7.50
2022-11-29T00:34:13.949Z,7.50
2022-11-29T00:36:43.048Z,7.50
2022-11-29T00:39:12.856Z,7.50
2022-11-29T00:41:41.108Z,7.50
2022-11-29T00:44:09.075Z,7.50
2022-11-29T00:46:37.279Z,7.50
2022-11-29T00:49:05.458Z,7.50
2022-11-29T00:51:33.414Z,7.50
2022-11-29T00:54:02.620Z,7.50
2022-11-29T00:56:30.487Z,7.50
2022-11-29T00:58:58.509Z,7.50
2022-11-29T01:01:26.297Z,7.50
2022-11-29T01:03:54.080Z,7.50
2022-11-29T01:06:21.792Z,7.50
2022-11-29T01:08:50.619Z,7.50
2022-11-29T01:11:22.588Z,7.50
2022-11-29T01:13:51.596Z,7.50
2022-11-29T01:16:19.477Z,7.50
2022-11-29T01:18:47.358Z,7.50
2022-11-29T01:21:17.301Z,7.50
2022-11-29T01:23:46.141Z,7.50
2022-11-29T01:26:16.100Z,7.50
2022-11-29T01:28:47.212Z,7.50
2022-11-29T01:31:19.370Z,7.50
2022-11-29T01:33:47.460Z,7.50
2022-11-29T01:36:15.604Z,7.50
2022-11-29T01:38:43.502Z,7.60
2022-11-29T01:41:15.054Z,7.60
2022-11-29T01:44:00.427Z,7.50
2022-11-29T01:46:29.734Z,7.50
2022-11-29T01:49:02.383Z,7.50
2022-11-29T01:51:31.188Z,7.50
2022-11-29T01:53:59.878Z,7.60
2022-11-29T01:56:29.359Z,7.50
2022-11-29T01:58:58.565Z,7.60
2022-11-29T02:01:27.015Z,7.60
2022-11-29T02:03:55.076Z,7.50
2022-11-29T02:06:23.746Z,7.50
2022-11-29T02:08:51.563Z,7.60
2022-11-29T02:11:36.954Z,7.60
2022-11-29T02:14:20.388Z,7.60
2022-11-29T02:16:58.113Z,7.60
2022-11-29T02:19:55.186Z,7.60
2022-11-29T02:22:28.456Z,7.60
2022-11-29T02:25:18.864Z,7.60
2022-11-29T02:28:21.760Z,7.60
2022-11-29T02:31:28.741Z,7.60
2022-11-29T02:34:15.875Z,7.60
2022-11-29T02:37:11.284Z,7.60
2022-11-29T02:40:07.164Z,7.60
2022-11-29T02:42:56.172Z,7.60
2022-11-29T02:45:39.300Z,7.60
2022-11-29T02:48:31.753Z,7.60
2022-11-29T02:51:09.086Z,7.60
2022-11-29T02:53:41.974Z,7.60
2022-11-29T02:56:16.367Z,7.60
2022-11-29T02:58:51.360Z,7.60
2022-11-29T03:01:24.692Z,7.60
2022-11-29T03:04:03.579Z,7.60
2022-11-29T03:06:40.348Z,7.60
2022-11-29T03:09:17.436Z,7.60
2022-11-29T03:11:51.639Z,7.60
2022-11-29T03:14:25.884Z,7.60
2022-11-29T03:17:06.585Z,7.60
2022-11-29T03:19:52.420Z,7.60
2022-11-29T03:22:38.209Z,7.60
2022-11-29T03:25:12.899Z,7.60
2022-11-29T03:27:44.418Z,7.60
2022-11-29T03:30:15.108Z,7.60
2022-11-29T03:32:49.189Z,7.60
2022-11-29T03:35:22.780Z,7.60
2022-11-29T03:38:00.518Z,7.60
2022-11-29T03:40:35.548Z,7.60
2022-11-29T03:43:07.637Z,7.60
2022-11-29T03:45:41.291Z,7.60
2022-11-29T03:48:13.489Z,7.60
2022-11-29T03:50:46.004Z,7.60
2022-11-29T03:53:21.091Z,7.60
2022-11-29T03:55:55.774Z,7.60
2022-11-29T03:58:47.940Z,7.60
2022-11-29T04:01:45.638Z,7.70
2022-11-29T04:04:41.193Z,7.60
2022-11-29T04:07:23.361Z,7.70
2022-11-29T04:10:17.270Z,7.70
2022-11-29T04:13:10.450Z,7.70
2022-11-29T04:16:10.816Z,7.70
2022-11-29T04:19:05.350Z,7.70
2022-11-29T04:21:53.220Z,7.70
2022-11-29T04:25:00.056Z,7.70
2022-11-29T04:27:36.957Z,7.70
2022-11-29T04:30:10.426Z,7.70
2022-11-29T04:33:15.070Z,7.70
2022-11-29T04:35:55.841Z,7.70
2022-11-29T04:38:42.394Z,7.70
2022-11-29T04:41:36.452Z,7.70
2022-11-29T04:44:17.904Z,7.70
2022-11-29T04:47:11.138Z,7.70
2022-11-29T04:49:54.666Z,7.70
2022-11-29T04:52:37.734Z,7.70
2022-11-29T04:55:20.920Z,7.70
2022-11-29T04:58:02.881Z,7.70
2022-11-29T05:00:36.132Z,7.70
2022-11-29T05:03:12.061Z,7.70
2022-11-29T05:05:47.244Z,7.70
2022-11-29T05:08:25.725Z,7.80
2022-11-29T05:11:00.958Z,7.80
2022-11-29T05:13:38.990Z,7.80
2022-11-29T05:16:38.699Z,7.80
2022-11-29T05:19:21.193Z,7.80
2022-11-29T05:21:59.934Z,7.80
2022-11-29T05:24:40.755Z,7.80
2022-11-29T05:27:16.221Z,7.80
2022-11-29T05:29:55.114Z,7.80
2022-11-29T05:32:32.470Z,7.80
2022-11-29T05:35:29.204Z,7.80
2022-11-29T05:38:05.254Z,7.70
2022-11-29T05:40:53.105Z,7.80
2022-11-29T05:43:41.733Z,7.80
2022-11-29T05:46:18.192Z,7.80
2022-11-29T05:48:51.843Z,7.80
2022-11-29T05:51:23.481Z,7.80
2022-11-29T05:54:05.141Z,7.80
2022-11-29T05:56:44.026Z,7.80
2022-11-29T05:59:16.143Z,7.80
2022-11-29T06:01:54.042Z,7.80
2022-11-29T06:04:28.697Z,7.80
2022-11-29T06:07:03.532Z,7.80
2022-11-29T06:09:35.860Z,7.80
2022-11-29T06:12:06.945Z,7.80
2022-11-29T06:14:52.918Z,7.80
2022-11-29T06:17:39.035Z,7.80
2022-11-29T06:20:20.826Z,7.80
2022-11-29T06:23:11.081Z,7.80
2022-11-29T06:26:04.049Z,7.80
2022-11-29T06:28:48.069Z,7.80
2022-11-29T06:31:21.511Z,7.80
2022-11-29T06:33:59.448Z,7.80
2022-11-29T06:36:32.103Z,7.80
2022-11-29T06:39:00.145Z,7.80
2022-11-29T06:41:28.465Z,7.80
2022-11-29T06:43:56.930Z,7.80
2022-11-29T06:46:36.051Z,7.80
2022-11-29T06:49:12.809Z,7.90
2022-11-29T06:51:52.196Z,7.90
2022-11-29T06:54:39.634Z,7.90
2022-11-29T06:57:12.987Z,7.90
2022-11-29T06:59:52.307Z,7.90
2022-11-29T07:02:33.358Z,7.90
2022-11-29T07:05:14.921Z,7.90
2022-11-29T07:07:43.227Z,7.90
2022-11-29T07:10:17.276Z,7.90
2022-11-29T07:12:45.828Z,7.90
2022-11-29T07:15:16.154Z,7.90
2022-11-29T07:17:58.353Z,7.90
2022-11-29T07:20:35.299Z,7.90
2022-11-29T07:23:12.065Z,7.90
2022-11-29T07:25:49.561Z,7.90
2022-11-29T07:28:32.262Z,7.90
2022-11-29T07:31:06.163Z,7.90
2022-11-29T07:33:41.885Z,7.90
2022-11-29T07:36:19.281Z,7.90
2022-11-29T07:38:58.759Z,7.90
2022-11-29T07:41:33.121Z,7.90
2022-11-29T07:44:07.758Z,7.90
2022-11-29T07:46:35.613Z,7.90
2022-11-29T07:49:03.470Z,7.90
2022-11-29T07:51:32.732Z,7.90
2022-11-29T07:54:01.272Z,7.90
2022-11-29T07:56:29.268Z,7.90
2022-11-29T07:58:57.092Z,7.90
2022-11-29T08:01:24.971Z,7.90
2022-11-29T08:03:52.748Z,7.90
2022-11-29T08:06:25.630Z,7.90
2022-11-29T08:08:54.786Z,7.90
2022-11-29T08:11:22.527Z,7.90
2022-11-29T08:13:50.271Z,7.90
2022-11-29T08:16:19.094Z,7.90
2022-11-29T08:18:46.926Z,7.90
2022-11-29T08:21:17.922Z,7.90
2022-11-29T08:23:45.765Z,7.90
2022-11-29T08:26:15.916Z,7.90
2022-11-29T08:28:43.868Z,8.00
2022-11-29T08:31:13.934Z,8.00
2022-11-29T08:33:44.412Z,7.90
2022-11-29T08:36:14.082Z,7.90
2022-11-29T08:38:41.849Z,8.00
2022-11-29T08:41:11.298Z,7.90
2022-11-29T08:43:41.092Z,7.90
2022-11-29T08:46:12.462Z,7.90
2022-11-29T08:48:44.569Z,7.90
2022-11-29T08:51:12.343Z,7.90
2022-11-29T08:53:41.999Z,7.90
2022-11-29T08:56:34.983Z,7.90
2022-11-29T08:59:00.102Z,7.90
2022-11-29T09:01:29.035Z,8.00
2022-11-29T09:04:03.624Z,8.00
2022-11-29T09:06:33.442Z,8.00
2022-11-29T09:09:01.859Z,8.00
2022-11-29T09:11:31.361Z,8.10
2022-11-29T09:14:02.224Z,8.10
2022-11-29T09:16:31.809Z,8.10
2022-11-29T09:19:00.099Z,8.10
2022-11-29T09:21:29.931Z,8.10
2022-11-29T09:24:00.580Z,8.10
2022-11-29T09:26:30.866Z,8.20
2022-11-29T09:29:01.461Z,8.20
2022-11-29T09:31:30.579Z,8.20
2022-11-29T09:33:58.560Z,8.20
2022-11-29T09:36:28.807Z,8.20
2022-11-29T09:38:57.372Z,8.20
2022-11-29T09:41:54.078Z,8.20
2022-11-29T09:44:34.325Z,8.20
2022-11-29T09:47:14.493Z,8.20
2022-11-29T09:49:56.218Z,8.20
2022-11-29T09:52:34.088Z,8.20
2022-11-29T09:55:10.072Z,8.30
2022-11-29T09:57:39.384Z,8.30
2022-11-29T10:00:17.182Z,8.30
2022-11-29T10:02:48.999Z,8.30
2022-11-29T10:05:21.942Z,8.40
2022-11-29T10:07:56.613Z,8.40
2022-11-29T10:10:28.500Z,8.40
2022-11-29T10:13:01.288Z,8.50
2022-11-29T10:15:35.224Z,8.50
2022-11-29T10:18:11.924Z,8.50
2022-11-29T10:20:48.602Z,8.60
2022-11-29T10:23:23.304Z,8.60
2022-11-29T10:25:53.139Z,8.60
2022-11-29T10:28:23.222Z,8.60
2022-11-29T10:30:53.838Z,8.70
2022-11-29T10:33:25.414Z,8.70
2022-11-29T10:35:58.035Z,8.60
2022-11-29T10:38:31.193Z,8.70
2022-11-29T10:41:05.448Z,8.70
2022-11-29T10:43:33.339Z,8.60
2022-11-29T10:46:02.647Z,8.60
2022-11-29T10:48:33.812Z,8.60
2022-11-29T10:51:03.543Z,8.60
2022-11-29T10:53:35.814Z,8.60
2022-11-29T10:56:07.784Z,8.60
2022-11-29T10:58:36.733Z,8.60
2022-11-29T11:01:07.784Z,8.60
2022-11-29T11:03:39.218Z,8.60
2022-11-29T11:06:11.865Z,8.60
2022-11-29T11:08:43.310Z,8.60
2022-11-29T11:11:12.585Z,8.50
2022-11-29T11:13:41.848Z,8.50
2022-11-29T11:16:18.414Z,8.50
2022-11-29T11:18:47.579Z,8.50
2022-11-29T11:21:17.168Z,8.60
2022-11-29T11:23:53.845Z,8.60
2022-11-29T11:26:22.765Z,8.60
2022-11-29T11:28:54.471Z,8.60
2022-11-29T11:31:32.609Z,8.60
2022-11-29T11:34:25.181Z,8.70
2022-11-29T11:36:53.429Z,8.70
2022-11-29T11:39:23.427Z,8.70
2022-11-29T11:42:10.843Z,8.70
2022-11-29T11:44:49.117Z,8.70
2022-11-29T11:47:21.043Z,8.70
2022-11-29T11:49:50.862Z,8.70
2022-11-29T11:52:22.446Z,8.70
2022-11-29T11:54:54.326Z,8.70
2022-11-29T11:57:23.326Z,8.70
2022-11-29T11:59:52.880Z,8.70
2022-11-29T12:02:30.706Z,8.70
2022-11-29T12:05:01.599Z,8.70
2022-11-29T12:08:06.172Z,8.70
2022-11-29T12:10:26.036Z,8.70
2022-11-29T12:12:55.753Z,8.60
2022-11-29T12:15:29.422Z,8.70
2022-11-29T12:18:04.342Z,8.60
2022-11-29T12:20:38.154Z,8.60
2022-11-29T12:23:26.829Z,8.60
2022-11-29T12:25:59.826Z,8.60
2022-11-29T12:28:30.748Z,8.60
2022-11-29T12:31:07.509Z,8.60
2022-11-29T12:33:45.802Z,8.60
2022-11-29T12:36:28.581Z,8.60
2022-11-29T12:39:08.552Z,8.60
2022-11-29T12:41:50.935Z,8.60
2022-11-29T12:44:31.852Z,8.60
2022-11-29T12:47:37.298Z,8.60
2022-11-29T12:50:08.430Z,8.60
2022-11-29T12:52:42.413Z,8.60
2022-11-29T12:55:20.014Z,8.50
2022-11-29T12:57:55.751Z,8.50
2022-11-29T13:00:24.406Z,8.50
2022-11-29T13:03:05.239Z,8.50
2022-11-29T13:05:51.806Z,8.50
2022-11-29T13:08:54.788Z,8.50
2022-11-29T13:11:26.644Z,8.50
2022-11-29T13:14:20.160Z,8.50
2022-11-29T13:16:56.166Z,8.40
2022-11-29T13:19:30.198Z,8.40
2022-11-29T13:22:04.821Z,8.40
2022-11-29T13:24:42.413Z,8.40
2022-11-29T13:27:17.180Z,8.40
2022-11-29T13:29:45.091Z,8.40
2022-11-29T13:32:30.006Z,8.30
2022-11-29T13:35:02.274Z,8.30
2022-11-29T13:37:39.026Z,8.30
2022-11-29T13:40:22.919Z,8.20
2022-11-29T13:42:59.869Z,8.20
2022-11-29T13:45:32.865Z,8.20
2022-11-29T13:48:02.659Z,8.20
2022-11-29T13:50:40.432Z,8.20
2022-11-29T13:53:16.780Z,8.20
2022-11-29T13:55:49.929Z,8.20
2022-11-29T13:58:36.822Z,8.20
2022-11-29T14:01:09.168Z,8.30
2022-11-29T14:03:41.674Z,8.30
2022-11-29T14:06:15.733Z,8.30
2022-11-29T14:09:20.176Z,8.30
2022-11-29T14:11:52.441Z,8.30
2022-11-29T14:14:26.864Z,8.30
2022-11-29T14:16:58.982Z,8.30
2022-11-29T14:19:33.480Z,8.30
2022-11-29T14:22:30.250Z,8.30
2022-11-29T14:25:49.717Z,8.30
2022-11-29T14:28:30.438Z,8.30
2022-11-29T14:31:01.372Z,8.20
2022-11-29T14:33:51.234Z,8.20
2022-11-29T14:36:47.197Z,8.20
2022-11-29T14:39:38.548Z,8.30
2022-11-29T14:42:16.819Z,8.20
2022-11-29T14:44:52.038Z,8.20
2022-11-29T14:47:32.384Z,8.20
2022-11-29T14:50:03.613Z,8.20
2022-11-29T14:52:34.450Z,8.20
2022-11-29T14:55:06.845Z,8.20
2022-11-29T14:58:07.547Z,8.20
2022-11-29T15:01:09.534Z,8.20
2022-11-29T15:03:45.147Z,8.20
2022-11-29T15:06:17.783Z,8.20
2022-11-29T15:08:55.508Z,8.20
2022-11-29T15:11:34.090Z,8.20
2022-11-29T15:14:07.118Z,8.20
2022-11-29T15:16:50.576Z,8.10
2022-11-29T15:20:01.023Z,8.10
2022-11-29T15:22:30.433Z,8.10
2022-11-29T15:25:01.553Z,8.10
2022-11-29T15:27:29.793Z,8.10
2022-11-29T15:29:58.837Z,8.10
2022-11-29T15:32:32.369Z,8.10
2022-11-29T15:35:01.985Z,8.10
2022-11-29T15:37:42.621Z,8.00
2022-11-29T15:40:14.481Z,8.00
2022-11-29T15:42:45.017Z,8.00
2022-11-29T15:45:32.493Z,7.90
2022-11-29T15:48:18.305Z,7.90
2022-11-29T15:50:57.426Z,7.90
2022-11-29T15:53:29.746Z,7.90
2022-11-29T15:55:59.411Z,7.90
2022-11-29T15:58:29.031Z,7.80
2022-11-29T16:00:58.051Z,7.80
2022-11-29T16:03:30.186Z,7.80
2022-11-29T16:06:04.468Z,7.80
2022-11-29T16:08:37.761Z,7.80
2022-11-29T16:11:07.397Z,7.80
2022-11-29T16:13:40.001Z,7.80
2022-11-29T16:16:17.099Z,7.80
2022-11-29T16:18:48.374Z,7.80
2022-11-29T16:21:28.867Z,7.80
2022-11-29T16:23:57.569Z,7.80
2022-11-29T16:26:29.762Z,7.70
2022-11-29T16:28:58.298Z,7.70
2022-11-29T16:31:33.916Z,7.70
2022-11-29T16:34:10.010Z,7.70
2022-11-29T16:36:37.966Z,7.70
2022-11-29T16:39:07.896Z,7.70
2022-11-29T16:41:37.625Z,7.70
2022-11-29T16:44:07.430Z,7.70
2022-11-29T16:46:37.457Z,7.70
2022-11-29T16:49:32.374Z,7.70
2022-11-29T16:52:00.337Z,7.70
2022-11-29T16:54:31.925Z,7.70
2022-11-29T16:56:59.786Z,7.70
2022-11-29T16:59:28.731Z,7.70
2022-11-29T17:01:57.074Z,7.70
2022-11-29T17:04:26.618Z,7.70
2022-11-29T17:06:55.811Z,7.70
2022-11-29T17:09:26.762Z,7.70
2022-11-29T17:11:55.373Z,7.60
2022-11-29T17:14:23.443Z,7.60
2022-11-29T17:16:51.898Z,7.60
2022-11-29T17:19:24.013Z,7.60
2022-11-29T17:21:53.475Z,7.60
2022-11-29T17:24:22.927Z,7.60
2022-11-29T17:26:51.375Z,7.60
2022-11-29T17:29:19.910Z,7.60
2022-11-29T17:31:50.184Z,7.60
2022-11-29T17:34:18.090Z,7.60
2022-11-29T17:36:46.098Z,7.60
2022-11-29T17:39:19.382Z,7.60
2022-11-29T17:41:47.697Z,7.60
2022-11-29T17:44:15.466Z,7.50
2022-11-29T17:46:43.220Z,7.50
2022-11-29T17:49:11.604Z,7.50
2022-11-29T17:51:51.815Z,7.50
2022-11-29T17:54:21.999Z,7.40
2022-11-29T17:56:50.050Z,7.40
2022-11-29T17:59:17.947Z,7.30
2022-11-29T18:01:46.970Z,7.30
2022-11-29T18:04:15.088Z,7.20
2022-11-29T18:06:43.454Z,7.20
2022-11-29T18:09:12.866Z,7.10
2022-11-29T18:11:48.252Z,7.10
2022-11-29T18:14:18.914Z,7.00
2022-11-29T18:16:46.788Z,7.00
2022-11-29T18:19:16.593Z,7.00
2022-11-29T18:21:44.621Z,6.90
2022-11-29T18:24:12.560Z,6.90
2022-11-29T18:26:42.162Z,6.90
2022-11-29T18:29:10.809Z,6.90
2022-11-29T18:31:40.710Z,6.80
2022-11-29T18:34:10.274Z,6.80
2022-11-29T18:36:39.549Z,6.80
2022-11-29T18:39:09.520Z,6.80
2022-11-29T18:41:38.256Z,6.80
2022-11-29T18:44:09.281Z,6.80
2022-11-29T18:46:38.925Z,6.80
2022-11-29T18:49:08.302Z,6.80
2022-11-29T18:51:37.468Z,6.80
2022-11-29T18:54:06.579Z,6.70
2022-11-29T18:56:35.641Z,6.80
2022-11-29T18:59:05.001Z,6.70
2022-11-29T19:01:37.745Z,6.70
2022-11-29T19:04:06.029Z,6.70
2022-11-29T19:06:39.786Z,6.70
2022-11-29T19:09:12.102Z,6.70
2022-11-29T19:11:40.142Z,6.70
2022-11-29T19:14:11.244Z,6.70
2022-11-29T19:16:42.421Z,6.70
2022-11-29T19:19:10.748Z,6.70
2022-11-29T19:21:39.586Z,6.70
2022-11-29T19:24:13.499Z,6.60
2022-11-29T19:26:42.863Z,6.60
2022-11-29T19:29:10.718Z,6.60
2022-11-29T19:31:40.120Z,6.60
2022-11-29T19:34:08.025Z,6.60
2022-11-29T19:36:37.241Z,6.60
2022-11-29T19:39:05.623Z,6.60
2022-11-29T19:41:35.332Z,6.60
2022-11-29T19:44:05.247Z,6.60
2022-11-29T19:46:35.092Z,6.60
2022-11-29T19:49:05.416Z,6.60
2022-11-29T19:51:33.230Z,6.60
2022-11-29T19:54:02.900Z,6.60
2022-11-29T19:56:31.702Z,6.60
2022-11-29T19:59:00.542Z,6.60
2022-11-29T20:01:39.284Z,6.60
2022-11-29T20:04:10.581Z,6.60
2022-11-29T20:06:38.460Z,6.60
2022-11-29T20:09:06.869Z,6.60
2022-11-29T20:11:34.732Z,6.60
2022-11-29T20:14:03.681Z,6.60
2022-11-29T20:16:32.532Z,6.60
2022-11-29T20:19:01.859Z,6.60
2022-11-29T20:21:32.654Z,6.60
2022-11-29T20:24:02.865Z,6.70
2022-11-29T20:26:33.103Z,6.70
2022-11-29T20:29:01.963Z,6.70
2022-11-29T20:31:30.556Z,6.70
2022-11-29T20:33:58.676Z,6.70
2022-11-29T20:36:40.832Z,6.70
2022-11-29T20:39:21.420Z,6.70
2022-11-29T20:42:00.250Z,6.70
2022-11-29T20:44:37.361Z,6.70
2022-11-29T20:47:14.634Z,6.70
2022-11-29T20:49:42.663Z,6.70
2022-11-29T20:52:25.155Z,6.70
2022-11-29T20:54:52.898Z,6.70
2022-11-29T20:57:20.622Z,6.70
2022-11-29T20:59:48.569Z,6.70
2022-11-29T21:02:16.365Z,6.70
2022-11-29T21:04:44.354Z,6.70
2022-11-29T21:07:13.596Z,6.70
2022-11-29T21:09:41.308Z,6.70
2022-11-29T21:12:10.098Z,6.70
2022-11-29T21:14:38.509Z,6.70
2022-11-29T21:17:07.050Z,6.70
2022-11-29T21:19:35.433Z,6.70
2022-11-29T21:22:11.313Z,6.70
2022-11-29T21:24:49.118Z,6.70
2022-11-29T21:27:23.522Z,6.70
2022-11-29T21:29:51.888Z,6.70
2022-11-29T21:32:23.447Z,6.70
2022-11-29T21:34:51.350Z,6.70
2022-11-29T21:37:21.125Z,6.70
2022-11-29T21:39:52.184Z,6.70
2022-11-29T21:42:21.533Z,6.70
2022-11-29T21:44:49.427Z,6.80
2022-11-29T21:47:17.312Z,6.80
2022-11-29T21:49:46.398Z,6.80
2022-11-29T21:52:20.710Z,6.80
2022-11-29T21:54:51.538Z,6.80
2022-11-29T21:57:19.342Z,6.80
2022-11-29T21:59:47.101Z,6.80
2022-11-29T22:02:15.148Z,6.80
2022-11-29T22:04:43.148Z,6.80
2022-11-29T22:07:10.940Z,6.80
2022-11-29T22:09:38.715Z,6.80
2022-11-29T22:12:31.891Z,6.80
2022-11-29T22:14:55.923Z,6.80
2022-11-29T22:17:23.830Z,6.80
2022-11-29T22:19:51.638Z,6.90
2022-11-29T22:22:19.423Z,6.90
2022-11-29T22:24:47.506Z,6.90
2022-11-29T22:27:18.453Z,6.90
2022-11-29T22:29:46.242Z,6.90
2022-11-29T22:32:14.062Z,6.90
2022-11-29T22:34:41.854Z,6.90
2022-11-29T22:37:09.643Z,6.90
2022-11-29T22:39:37.404Z,6.90
2022-11-29T22:42:05.196Z,6.90
2022-11-29T22:44:34.270Z,6.90
2022-11-29T22:47:02.029Z,6.90
2022-11-29T22:49:30.121Z,6.90
2022-11-29T22:51:57.837Z,6.90
2022-11-29T22:54:25.744Z,6.90
2022-11-29T22:56:54.102Z,6.90
2022-11-29T22:59:21.839Z,6.90
2022-11-29T23:01:50.985Z,6.90
2022-11-29T23:04:18.849Z,6.90
2022-11-29T23:06:47.166Z,6.90
2022-11-29T23:09:18.870Z,6.90
2022-11-29T23:11:50.924Z,6.90
2022-11-29T23:14:18.809Z,6.90
2022-11-29T23:16:46.639Z,6.90
2022-11-29T23:19:16.055Z,6.90
2022-11-29T23:21:45.633Z,6.90
2022-11-29T23:24:13.863Z,6.90
2022-11-29T23:26:44.146Z,6.90
2022-11-29T23:29:14.558Z,6.90
2022-11-29T23:31:42.346Z,6.90
2022-11-29T23:34:10.215Z,6.90
2022-11-29T23:36:39.409Z,6.90
2022-11-29T23:39:07.756Z,6.90
2022-11-29T23:41:36.753Z,6.90
2022-11-29T23:44:04.803Z,6.90
2022-11-29T23:46:32.857Z,6.90
2022-11-29T23:49:00.605Z,6.90
2022-11-29T23:51:28.401Z,6.90
2022-11-29T23:53:57.456Z,7.00
2022-11-29T23:56:25.219Z,6.90
2022-11-29T23:58:52.992Z,6.90
